Time;durP1;ratioP1;P1;durP2;ratioP2;P2;SDS_P1;SDS_P2;PMS_P1;PMS_P2;Temp;Humidity;BMP_temperature;BMP_pressure;BME280_temperature;BME280_humidity;BME280_pressure;Samples;Min_cycle;Max_cycle;Signal;HPM_P1;HPM_P2
2022/09/02 00:00:27;;;;;;;4.55;2.83;;;;;;;;;;5061926;28;20421;-69
2022/09/02 00:02:53;;;;;;;3.08;2.90;;;;;;;;;;5062021;28;20231;-69
2022/09/02 00:05:20;;;;;;;3.33;3.03;;;;;;;;;;5061673;28;20220;-69
2022/09/02 00:07:47;;;;;;;3.08;2.83;;;;;;;;;;5062358;28;20520;-69
2022/09/02 00:10:14;;;;;;;3.35;2.72;;;;;;;;;;5061753;28;20398;-69
2022/09/02 00:12:40;;;;;;;3.00;2.90;;;;;;;;;;5062085;28;20250;-69
2022/09/02 00:15:06;;;;;;;3.45;3.15;;;;;;;;;;5061930;28;20429;-69
2022/09/02 00:17:33;;;;;;;3.47;3.38;;;;;;;;;;5061915;28;20197;-69
2022/09/02 00:19:59;;;;;;;3.72;2.97;;;;;;;;;;5062102;28;20225;-69
2022/09/02 00:22:25;;;;;;;3.33;3.20;;;;;;;;;;5062113;28;20206;-69
2022/09/02 00:24:53;;;;;;;3.08;2.97;;;;;;;;;;5061689;28;20246;-69
2022/09/02 00:27:19;;;;;;;3.10;2.83;;;;;;;;;;5062029;28;20197;-69
2022/09/02 00:29:45;;;;;;;2.75;2.65;;;;;;;;;;5061476;28;20217;-69
2022/09/02 00:32:12;;;;;;;3.08;2.88;;;;;;;;;;5061664;28;20205;-69
2022/09/02 00:34:38;;;;;;;3.05;2.85;;;;;;;;;;5061897;28;20252;-69
2022/09/02 00:37:04;;;;;;;3.50;3.20;;;;;;;;;;5061879;28;20197;-69
2022/09/02 00:39:30;;;;;;;3.28;3.17;;;;;;;;;;5061638;28;20198;-69
2022/09/02 00:42:00;;;;;;;2.95;2.75;;;;;;;;;;5061851;28;20212;-69
2022/09/02 00:44:26;;;;;;;3.22;3.05;;;;;;;;;;5061693;28;20207;-69
2022/09/02 00:46:52;;;;;;;3.05;2.95;;;;;;;;;;5061584;28;20224;-69
2022/09/02 00:49:23;;;;;;;3.17;2.97;;;;;;;;;;5061451;28;20459;-69
2022/09/02 00:51:52;;;;;;;3.17;2.97;;;;;;;;;;5061507;28;20197;-69
2022/09/02 00:54:21;;;;;;;3.40;3.15;;;;;;;;;;5061799;28;20197;-69
2022/09/02 00:56:49;;;;;;;3.17;3.08;;;;;;;;;;5061569;28;20251;-69
2022/09/02 00:59:20;;;;;;;3.15;3.05;;;;;;;;;;5061220;28;20254;-69
2022/09/02 01:01:46;;;;;;;3.80;3.55;;;;;;;;;;5061508;28;20202;-69
2022/09/02 01:04:12;;;;;;;3.63;3.33;;;;;;;;;;5061614;28;20205;-69
2022/09/02 01:06:39;;;;;;;3.70;3.40;;;;;;;;;;5061662;28;20217;-69
2022/09/02 01:09:11;;;;;;;3.60;3.38;;;;;;;;;;5064754;28;20296;-69
2022/09/02 01:11:39;;;;;;;4.13;3.83;;;;;;;;;;5065392;28;20197;-69
2022/09/02 01:14:06;;;;;;;3.85;3.40;;;;;;;;;;5064895;28;20432;-69
2022/09/02 01:16:36;;;;;;;3.67;3.58;;;;;;;;;;5065102;28;20197;-69
2022/09/02 01:19:06;;;;;;;3.63;3.45;;;;;;;;;;5064954;28;20193;-69
2022/09/02 01:21:33;;;;;;;4.45;3.72;;;;;;;;;;5064984;28;20205;-69
2022/09/02 01:24:01;;;;;;;4.15;3.95;;;;;;;;;;5064824;28;20264;-69
2022/09/02 01:26:27;;;;;;;3.95;3.75;;;;;;;;;;5064692;28;20197;-69
2022/09/02 01:28:53;;;;;;;4.10;3.78;;;;;;;;;;5064518;28;20505;-69
2022/09/02 01:31:19;;;;;;;3.83;3.63;;;;;;;;;;5064809;28;20244;-69
2022/09/02 01:33:46;;;;;;;4.15;3.90;;;;;;;;;;5064133;28;20205;-69
2022/09/02 01:36:12;;;;;;;4.22;4.00;;;;;;;;;;5064442;28;20197;-69
2022/09/02 01:38:38;;;;;;;4.40;4.10;;;;;;;;;;5064407;28;20268;-69
2022/09/02 01:41:06;;;;;;;4.45;4.05;;;;;;;;;;5064652;28;20200;-69
2022/09/02 01:43:32;;;;;;;4.35;4.05;;;;;;;;;;5064585;28;20258;-69
2022/09/02 01:45:59;;;;;;;5.70;4.20;;;;;;;;;;5064384;28;20235;-69
2022/09/02 01:48:25;;;;;;;4.55;4.25;;;;;;;;;;5064536;28;20517;-69
2022/09/02 01:50:53;;;;;;;4.60;4.25;;;;;;;;;;5063895;28;20236;-69
2022/09/02 01:53:20;;;;;;;4.38;4.00;;;;;;;;;;5064180;28;20202;-69
2022/09/02 01:55:46;;;;;;;4.43;4.22;;;;;;;;;;5064357;28;20497;-69
2022/09/02 01:58:13;;;;;;;4.68;4.38;;;;;;;;;;5064161;28;20243;-69
2022/09/02 02:00:41;;;;;;;4.50;4.10;;;;;;;;;;5063736;28;20451;-69
2022/09/02 02:03:07;;;;;;;4.90;4.50;;;;;;;;;;5064073;28;20204;-69
2022/09/02 02:05:34;;;;;;;4.43;4.10;;;;;;;;;;5063929;28;20217;-69
2022/09/02 02:08:00;;;;;;;4.50;4.20;;;;;;;;;;5064149;28;20211;-69
2022/09/02 02:10:26;;;;;;;4.72;4.15;;;;;;;;;;5063804;28;20244;-69
2022/09/02 02:12:53;;;;;;;3.78;3.58;;;;;;;;;;5064111;28;20197;-69
2022/09/02 02:15:21;;;;;;;6.60;4.28;;;;;;;;;;5063769;28;20201;-69
2022/09/02 02:17:47;;;;;;;3.88;3.67;;;;;;;;;;5063666;28;20228;-69
2022/09/02 02:20:17;;;;;;;4.47;4.07;;;;;;;;;;5063727;28;20209;-69
2022/09/02 02:22:43;;;;;;;4.53;4.20;;;;;;;;;;5063838;28;20500;-69
2022/09/02 02:25:10;;;;;;;4.18;3.88;;;;;;;;;;5063705;28;20197;-69
2022/09/02 02:27:37;;;;;;;4.45;4.15;;;;;;;;;;5063692;28;20276;-69
2022/09/02 02:30:04;;;;;;;4.18;3.85;;;;;;;;;;5063386;28;20221;-69
2022/09/02 02:32:32;;;;;;;5.28;3.67;;;;;;;;;;5063326;28;20236;-69
2022/09/02 02:34:58;;;;;;;3.97;3.80;;;;;;;;;;5063763;28;20477;-69
2022/09/02 02:37:25;;;;;;;4.47;4.07;;;;;;;;;;5063526;28;20200;-69
2022/09/02 02:39:51;;;;;;;4.43;4.18;;;;;;;;;;5063063;28;20238;-69
2022/09/02 02:42:17;;;;;;;4.15;3.53;;;;;;;;;;5063269;28;20220;-69
2022/09/02 02:44:43;;;;;;;3.33;3.08;;;;;;;;;;5063331;28;20551;-69
2022/09/02 02:47:10;;;;;;;3.35;3.25;;;;;;;;;;5063102;28;20388;-69
2022/09/02 02:49:38;;;;;;;3.30;3.10;;;;;;;;;;5063037;28;20385;-69
2022/09/02 02:52:04;;;;;;;3.28;3.08;;;;;;;;;;5063555;28;20197;-69
2022/09/02 02:54:30;;;;;;;3.13;2.90;;;;;;;;;;5063136;28;20396;-69
2022/09/02 02:56:57;;;;;;;3.10;2.88;;;;;;;;;;5062982;28;20339;-69
2022/09/02 02:59:24;;;;;;;2.67;2.58;;;;;;;;;;5062788;28;20429;-69
2022/09/02 03:01:51;;;;;;;3.25;3.03;;;;;;;;;;5063134;28;20512;-69
2022/09/02 03:04:17;;;;;;;4.18;2.60;;;;;;;;;;5062871;28;20264;-69
2022/09/02 03:06:45;;;;;;;2.88;2.78;;;;;;;;;;5062939;28;20217;-69
2022/09/02 03:09:11;;;;;;;4.18;2.50;;;;;;;;;;5062605;28;20197;-69
2022/09/02 03:11:37;;;;;;;2.63;2.30;;;;;;;;;;5062670;28;20232;-69
2022/09/02 03:14:04;;;;;;;2.53;2.40;;;;;;;;;;5062666;28;20201;-69
2022/09/02 03:16:30;;;;;;;3.00;2.58;;;;;;;;;;5062926;28;20197;-69
2022/09/02 03:18:57;;;;;;;4.88;2.70;;;;;;;;;;5062621;28;20197;-69
2022/09/02 03:21:23;;;;;;;3.03;2.83;;;;;;;;;;5062681;28;20231;-69
2022/09/02 03:23:50;;;;;;;3.58;2.78;;;;;;;;;;5062529;28;20201;-69
2022/09/02 03:26:18;;;;;;;3.20;3.00;;;;;;;;;;5062465;28;20196;-69
2022/09/02 03:28:44;;;;;;;3.03;2.83;;;;;;;;;;5062853;28;20481;-69
2022/09/02 03:31:13;;;;;;;3.60;3.40;;;;;;;;;;5061984;28;20217;-69
2022/09/02 03:33:39;;;;;;;3.40;3.20;;;;;;;;;;5062763;28;20428;-68
2022/09/02 03:36:06;;;;;;;3.83;3.08;;;;;;;;;;5062542;28;20434;-69
2022/09/02 03:38:34;;;;;;;3.30;3.20;;;;;;;;;;5062220;28;20203;-69
2022/09/02 03:41:02;;;;;;;3.10;2.95;;;;;;;;;;5062029;28;20197;-69
2022/09/02 03:43:28;;;;;;;3.70;3.08;;;;;;;;;;5062451;28;20212;-69
2022/09/02 03:45:54;;;;;;;3.60;3.40;;;;;;;;;;5062587;28;20396;-69
2022/09/02 03:48:22;;;;;;;3.22;2.97;;;;;;;;;;5062424;28;20519;-69
2022/09/02 03:50:48;;;;;;;3.63;3.33;;;;;;;;;;5062189;28;20536;-70
2022/09/02 03:53:14;;;;;;;2.60;2.60;;;;;;;;;;5062146;28;20400;-69
2022/09/02 03:55:40;;;;;;;3.03;2.83;;;;;;;;;;5062449;28;20268;-69
2022/09/02 03:58:08;;;;;;;3.05;2.85;;;;;;;;;;5062101;28;20235;-68
2022/09/02 04:00:35;;;;;;;3.35;3.10;;;;;;;;;;5061782;28;20193;-68
2022/09/02 04:03:02;;;;;;;3.72;3.03;;;;;;;;;;5062160;28;20197;-68
2022/09/02 04:05:28;;;;;;;5.05;3.20;;;;;;;;;;5062013;28;20209;-68
2022/09/02 04:07:56;;;;;;;3.35;3.15;;;;;;;;;;5062049;28;20255;-68
2022/09/02 04:10:22;;;;;;;3.67;3.47;;;;;;;;;;5061470;28;20225;-68
2022/09/02 04:12:52;;;;;;;5.30;3.85;;;;;;;;;;5062177;28;20204;-68
2022/09/02 04:15:21;;;;;;;4.90;4.60;;;;;;;;;;5062131;28;20204;-68
2022/09/02 04:17:48;;;;;;;4.03;3.72;;;;;;;;;;5062083;28;20204;-69
2022/09/02 04:20:15;;;;;;;7.78;4.45;;;;;;;;;;5061720;28;20197;-67
2022/09/02 04:22:41;;;;;;;4.45;4.03;;;;;;;;;;5061721;28;20196;-67
2022/09/02 04:25:08;;;;;;;3.65;3.53;;;;;;;;;;5062258;28;20204;-67
2022/09/02 04:27:35;;;;;;;3.42;3.33;;;;;;;;;;5061893;28;20219;-67
2022/09/02 04:30:01;;;;;;;3.25;3.05;;;;;;;;;;5061955;28;20566;-67
2022/09/02 04:32:29;;;;;;;3.85;3.55;;;;;;;;;;5061726;28;20536;-67
2022/09/02 04:34:55;;;;;;;3.95;3.28;;;;;;;;;;5061719;28;20232;-67
2022/09/02 04:37:21;;;;;;;3.72;3.47;;;;;;;;;;5061675;28;20197;-67
2022/09/02 04:39:47;;;;;;;3.80;3.50;;;;;;;;;;5061365;28;20201;-67
2022/09/02 04:42:14;;;;;;;3.85;3.65;;;;;;;;;;5062764;28;20529;-67
2022/09/02 04:44:40;;;;;;;4.10;3.70;;;;;;;;;;5065531;28;20387;-67
2022/09/02 04:47:06;;;;;;;3.97;3.70;;;;;;;;;;5065582;28;20197;-67
2022/09/02 04:49:34;;;;;;;3.35;3.17;;;;;;;;;;5065219;28;20197;-67
2022/09/02 04:52:00;;;;;;;3.88;3.25;;;;;;;;;;5065550;28;20221;-67
2022/09/02 04:54:26;;;;;;;4.28;3.80;;;;;;;;;;5065578;28;20501;-67
2022/09/02 04:56:53;;;;;;;3.58;3.30;;;;;;;;;;5065291;28;20448;-67
2022/09/02 04:59:20;;;;;;;3.40;3.30;;;;;;;;;;5065137;28;20197;-67
2022/09/02 05:01:46;;;;;;;4.00;3.78;;;;;;;;;;5065278;28;20228;-67
2022/09/02 05:04:13;;;;;;;4.05;3.85;;;;;;;;;;5065450;28;20201;-67
2022/09/02 05:06:40;;;;;;;3.70;3.13;;;;;;;;;;5064925;28;20217;-67
2022/09/02 05:09:07;;;;;;;3.58;3.30;;;;;;;;;;5065153;28;20422;-67
2022/09/02 05:11:34;;;;;;;4.45;3.97;;;;;;;;;;5065150;28;20540;-67
2022/09/02 05:14:02;;;;;;;4.03;3.72;;;;;;;;;;5065204;28;20197;-67
2022/09/02 05:16:29;;;;;;;4.00;3.80;;;;;;;;;;5065224;28;20197;-67
2022/09/02 05:18:55;;;;;;;6.40;4.10;;;;;;;;;;5064631;28;20203;-67
2022/09/02 05:21:23;;;;;;;3.80;3.50;;;;;;;;;;5064674;28;20197;-67
2022/09/02 05:23:50;;;;;;;4.20;3.80;;;;;;;;;;5065046;28;20201;-67
2022/09/02 05:26:17;;;;;;;4.10;3.80;;;;;;;;;;5064979;28;20439;-67
2022/09/02 05:28:44;;;;;;;4.70;4.40;;;;;;;;;;5064818;28;20209;-67
2022/09/02 05:31:12;;;;;;;7.22;4.32;;;;;;;;;;5064182;28;20279;-67
2022/09/02 05:33:40;;;;;;;5.63;4.35;;;;;;;;;;5064257;28;20224;-67
2022/09/02 05:36:07;;;;;;;4.60;3.90;;;;;;;;;;5064144;28;20612;-67
2022/09/02 05:38:33;;;;;;;7.25;4.25;;;;;;;;;;5064458;28;20197;-68
2022/09/02 05:41:03;;;;;;;7.25;4.63;;;;;;;;;;5063838;28;20204;-68
2022/09/02 05:43:30;;;;;;;4.57;4.28;;;;;;;;;;5064140;28;20201;-68
2022/09/02 05:45:58;;;;;;;4.63;4.22;;;;;;;;;;5064021;28;20439;-68
2022/09/02 05:51:08;;;;;;;5.07;4.57;;;;;;;;;;5063752;28;20266;-68
2022/09/02 05:53:34;;;;;;;6.93;4.97;;;;;;;;;;5063536;28;20243;-67
2022/09/02 05:56:05;;;;;;;6.13;5.00;;;;;;;;;;5063947;28;20651;-67
2022/09/02 05:58:31;;;;;;;5.03;4.53;;;;;;;;;;5064017;28;20204;-68
2022/09/02 06:00:57;;;;;;;5.00;4.70;;;;;;;;;;5063558;28;20463;-67
2022/09/02 06:03:24;;;;;;;4.93;4.53;;;;;;;;;;5063952;28;20203;-67
2022/09/02 06:05:54;;;;;;;5.07;4.40;;;;;;;;;;5063651;28;20225;-67
2022/09/02 06:08:20;;;;;;;4.78;4.38;;;;;;;;;;5063720;28;20203;-67
2022/09/02 06:10:46;;;;;;;4.70;4.30;;;;;;;;;;5063565;28;20517;-67
2022/09/02 06:13:14;;;;;;;6.25;4.43;;;;;;;;;;5063700;28;20201;-67
2022/09/02 06:15:42;;;;;;;5.30;4.55;;;;;;;;;;5063777;28;20228;-67
2022/09/02 06:18:09;;;;;;;4.72;4.32;;;;;;;;;;5063472;28;20197;-67
2022/09/02 06:20:39;;;;;;;4.82;4.43;;;;;;;;;;5063227;28;20404;-61
2022/09/02 06:23:05;;;;;;;4.72;4.38;;;;;;;;;;5063358;28;20196;-61
2022/09/02 06:25:31;;;;;;;6.68;4.65;;;;;;;;;;5063117;28;20204;-61
2022/09/02 06:27:58;;;;;;;6.93;4.15;;;;;;;;;;5052685;28;20209;-61
2022/09/02 06:30:25;;;;;;;4.55;4.07;;;;;;;;;;5052348;28;20228;-62
2022/09/02 06:32:51;;;;;;;4.35;3.83;;;;;;;;;;5056564;28;20539;-61
2022/09/02 06:35:18;;;;;;;5.55;3.80;;;;;;;;;;5056313;28;20769;-61
2022/09/02 06:37:44;;;;;;;2.75;2.58;;;;;;;;;;5038312;28;20525;-61
2022/09/02 06:40:12;;;;;;;4.47;2.35;;;;;;;;;;5035618;28;20205;-61
2022/09/02 06:42:39;;;;;;;3.88;2.80;;;;;;;;;;5034223;28;20209;-61
2022/09/02 06:45:05;;;;;;;3.53;3.00;;;;;;;;;;5055649;28;20261;-62
2022/09/02 06:47:33;;;;;;;2.58;2.47;;;;;;;;;;5053397;28;20217;-61
2022/09/02 06:50:00;;;;;;;2.83;2.60;;;;;;;;;;5054375;28;20219;-62
2022/09/02 06:52:26;;;;;;;3.03;1.90;;;;;;;;;;5055216;28;20623;-62
2022/09/02 06:54:53;;;;;;;1.90;1.80;;;;;;;;;;5047273;28;20220;-61
2022/09/02 06:57:20;;;;;;;2.42;2.25;;;;;;;;;;5053280;28;20266;-61
2022/09/02 06:59:46;;;;;;;3.10;2.35;;;;;;;;;;5035001;28;20428;-61
2022/09/02 07:02:12;;;;;;;2.53;2.30;;;;;;;;;;5036207;28;20206;-62
2022/09/02 07:07:25;;;;;;;2.65;2.40;;;;;;;;;;5039207;28;20437;-61
2022/09/02 07:09:51;;;;;;;1.73;1.63;;;;;;;;;;5034963;28;20533;-61
2022/09/02 07:12:18;;;;;;;3.40;1.73;;;;;;;;;;5047122;28;20551;-62
2022/09/02 07:14:44;;;;;;;2.05;1.95;;;;;;;;;;5054901;28;20516;-62
2022/09/02 07:17:16;;;;;;;1.77;1.67;;;;;;;;;;5054713;28;20544;-61
2022/09/02 07:19:44;;;;;;;3.13;1.90;;;;;;;;;;5053937;28;20213;-61
2022/09/02 07:22:10;;;;;;;2.28;1.80;;;;;;;;;;5046942;28;20205;-61
2022/09/02 07:24:36;;;;;;;1.83;1.70;;;;;;;;;;5043359;28;20307;-61
2022/09/02 07:27:04;;;;;;;2.35;2.25;;;;;;;;;;5034580;28;20201;-60
2022/09/02 07:29:31;;;;;;;1.80;1.70;;;;;;;;;;5033887;28;20521;-62
2022/09/02 07:31:57;;;;;;;2.10;2.03;;;;;;;;;;5039281;28;20580;-60
2022/09/02 07:34:23;;;;;;;6.30;4.28;;;;;;;;;;5051533;28;20248;-61
2022/09/02 07:36:51;;;;;;;2.13;2.03;;;;;;;;;;5053988;28;20443;-59
2022/09/02 07:39:18;;;;;;;1.80;1.70;;;;;;;;;;5053601;28;20220;-61
2022/09/02 07:41:45;;;;;;;1.80;1.70;;;;;;;;;;5054322;28;20236;-60
2022/09/02 07:44:12;;;;;;;3.13;2.63;;;;;;;;;;5054448;28;20410;-62
2022/09/02 07:46:39;;;;;;;1.75;1.65;;;;;;;;;;5050326;28;20214;-62
2022/09/02 07:49:06;;;;;;;3.80;1.67;;;;;;;;;;5049735;28;20255;-62
2022/09/02 07:51:33;;;;;;;2.08;1.88;;;;;;;;;;5053763;28;20233;-62
2022/09/02 07:54:01;;;;;;;2.25;2.15;;;;;;;;;;5054523;28;20235;-62
2022/09/02 07:56:28;;;;;;;4.35;2.00;;;;;;;;;;5054003;28;20228;-62
2022/09/02 07:58:54;;;;;;;3.72;1.70;;;;;;;;;;5052928;28;20213;-62
2022/09/02 08:01:21;;;;;;;1.48;1.23;;;;;;;;;;5053793;28;20209;-62
2022/09/02 08:03:47;;;;;;;2.90;2.10;;;;;;;;;;5053603;28;20266;-62
2022/09/02 08:06:14;;;;;;;2.63;2.50;;;;;;;;;;5040683;28;20245;-60
2022/09/02 08:08:40;;;;;;;4.15;2.95;;;;;;;;;;5033518;28;20276;-61
2022/09/02 08:11:08;;;;;;;1.98;1.80;;;;;;;;;;5045663;28;20229;-61
2022/09/02 08:13:35;;;;;;;4.70;4.32;;;;;;;;;;5046533;28;20213;-62
2022/09/02 08:16:02;;;;;;;3.95;1.50;;;;;;;;;;5034782;28;20218;-61
2022/09/02 08:18:28;;;;;;;4.45;1.45;;;;;;;;;;5039954;28;20209;-61
2022/09/02 08:20:55;;;;;;;5.72;1.60;;;;;;;;;;5052285;28;20236;-61
2022/09/02 08:23:21;;;;;;;1.35;1.30;;;;;;;;;;5041826;28;20206;-61
2022/09/02 08:25:47;;;;;;;2.45;2.25;;;;;;;;;;5039352;28;20244;-61
2022/09/02 08:28:15;;;;;;;3.03;1.55;;;;;;;;;;5057960;28;20208;-60
2022/09/02 08:30:41;;;;;;;3.13;2.60;;;;;;;;;;5052492;28;20236;-61
2022/09/02 08:33:08;;;;;;;1.67;1.58;;;;;;;;;;5037804;28;20267;-62
2022/09/02 08:35:34;;;;;;;1.75;1.65;;;;;;;;;;5037662;28;20255;-62
2022/09/02 08:38:00;;;;;;;7.43;1.55;;;;;;;;;;5046032;28;20215;-62
2022/09/02 08:40:32;;;;;;;2.42;1.30;;;;;;;;;;5039836;28;20390;-62
2022/09/02 08:42:59;;;;;;;3.10;2.95;;;;;;;;;;5045971;28;20276;-61
2022/09/02 08:45:29;;;;;;;1.73;1.33;;;;;;;;;;5039754;28;20517;-61
2022/09/02 08:47:58;;;;;;;2.85;1.90;;;;;;;;;;5056897;28;20255;-62
2022/09/02 08:50:25;;;;;;;1.90;1.40;;;;;;;;;;5056291;28;20224;-61
2022/09/02 08:52:56;;;;;;;1.35;1.20;;;;;;;;;;5052806;28;20229;-62
2022/09/02 08:55:24;;;;;;;3.95;1.27;;;;;;;;;;5047570;28;20213;-62
2022/09/02 08:57:51;;;;;;;3.10;1.95;;;;;;;;;;5037060;28;20705;-62
2022/09/02 09:00:17;;;;;;;2.67;1.45;;;;;;;;;;5037382;28;20213;-62
2022/09/02 09:02:55;;;;;;;3.25;1.65;;;;;;;;;;5037486;28;20206;-62
2022/09/02 09:05:26;;;;;;;3.00;1.35;;;;;;;;;;5037084;28;20606;-62
2022/09/02 09:08:01;;;;;;;1.38;1.30;;;;;;;;;;5036907;28;20221;-62
2022/09/02 09:10:30;;;;;;;1.38;1.27;;;;;;;;;;5037135;28;20291;-61
2022/09/02 09:13:04;;;;;;;0.80;0.80;;;;;;;;;;5036850;28;20236;-61
2022/09/02 09:15:33;;;;;;;1.42;1.17;;;;;;;;;;5043883;28;20259;-61
2022/09/02 09:18:02;;;;;;;1.35;1.25;;;;;;;;;;5057008;28;20224;-61
2022/09/02 09:20:30;;;;;;;6.30;3.10;;;;;;;;;;5054983;28;20552;-62
2022/09/02 09:22:57;;;;;;;4.20;3.53;;;;;;;;;;5046626;28;20484;-62
2022/09/02 09:25:28;;;;;;;2.25;2.10;;;;;;;;;;5046178;28;20255;-63
2022/09/02 09:27:54;;;;;;;2.03;1.92;;;;;;;;;;5048034;28;20244;-61
2022/09/02 09:30:21;;;;;;;2.53;2.15;;;;;;;;;;5035672;28;20220;-60
2022/09/02 09:32:49;;;;;;;3.72;2.22;;;;;;;;;;5036429;28;20229;-61
2022/09/02 09:35:18;;;;;;;1.55;1.42;;;;;;;;;;5040816;28;20288;-61
2022/09/02 09:37:46;;;;;;;4.40;2.00;;;;;;;;;;5056192;28;20213;-62
2022/09/02 09:40:24;;;;;;;3.58;1.20;;;;;;;;;;5047660;28;20213;-63
2022/09/02 09:42:54;;;;;;;1.40;1.10;;;;;;;;;;5036147;28;20542;-62
2022/09/02 09:45:21;;;;;;;7.03;5.65;;;;;;;;;;5048784;28;20208;-61
2022/09/02 09:48:03;;;;;;;1.00;1.00;;;;;;;;;;5036345;28;20221;-62
2022/09/02 09:50:31;;;;;;;2.97;2.67;;;;;;;;;;5036453;28;20215;-61
2022/09/02 09:53:13;;;;;;;2.83;1.38;;;;;;;;;;5042465;28;20291;-61
2022/09/02 09:55:50;;;;;;;3.13;1.10;;;;;;;;;;5056503;28;20212;-62
2022/09/02 09:58:16;;;;;;;1.85;1.75;;;;;;;;;;5044229;28;20623;-62
2022/09/02 10:00:43;;;;;;;2.75;1.70;;;;;;;;;;5036080;28;20271;-62
2022/09/02 10:03:18;;;;;;;1.40;1.30;;;;;;;;;;5056298;28;20209;-62
2022/09/02 10:05:46;;;;;;;1.38;1.20;;;;;;;;;;5048969;28;20232;-59
2022/09/02 10:08:19;;;;;;;1.70;1.60;;;;;;;;;;5038380;28;20228;-61
2022/09/02 10:10:54;;;;;;;3.33;2.20;;;;;;;;;;5035994;28;20470;-60
2022/09/02 10:13:23;;;;;;;1.45;1.30;;;;;;;;;;5039814;28;20248;-60
2022/09/02 10:15:56;;;;;;;2.55;0.80;;;;;;;;;;5043392;28;20271;-60
2022/09/02 10:18:27;;;;;;;5.22;0.70;;;;;;;;;;5053553;28;20235;-59
2022/09/02 10:21:00;;;;;;;2.63;0.77;;;;;;;;;;5047802;28;20528;-59
2022/09/02 10:23:31;;;;;;;1.95;0.80;;;;;;;;;;5037083;28;20526;-62
2022/09/02 10:26:02;;;;;;;0.70;0.70;;;;;;;;;;5041759;28;20560;-63
2022/09/02 10:28:37;;;;;;;2.13;0.80;;;;;;;;;;5036510;28;20544;-62
2022/09/02 10:31:08;;;;;;;0.80;0.80;;;;;;;;;;5035324;28;20570;-62
2022/09/02 10:33:39;;;;;;;1.48;0.75;;;;;;;;;;5035325;28;20551;-62
2022/09/02 10:36:11;;;;;;;2.15;0.98;;;;;;;;;;5055950;28;20818;-62
2022/09/02 10:38:40;;;;;;;2.53;0.90;;;;;;;;;;5055653;28;20212;-62
2022/09/02 10:41:14;;;;;;;1.50;0.80;;;;;;;;;;5054463;28;20212;-62
2022/09/02 10:43:49;;;;;;;2.13;0.63;;;;;;;;;;5051700;28;20208;-61
2022/09/02 10:46:17;;;;;;;0.73;0.63;;;;;;;;;;5052395;28;20527;-62
2022/09/02 10:48:48;;;;;;;1.27;0.73;;;;;;;;;;5054042;28;20223;-62
2022/09/02 10:51:20;;;;;;;6.25;0.70;;;;;;;;;;5050742;28;20205;-60
2022/09/02 10:53:58;;;;;;;1.40;0.70;;;;;;;;;;5040525;28;20229;-62
2022/09/02 10:56:26;;;;;;;4.57;0.60;;;;;;;;;;5035022;28;20370;-62
2022/09/02 10:58:55;;;;;;;0.82;0.80;;;;;;;;;;5034269;28;20221;-60
2022/09/02 11:01:24;;;;;;;2.17;0.77;;;;;;;;;;5035166;28;20391;-62
2022/09/02 11:03:56;;;;;;;3.80;0.85;;;;;;;;;;5048695;28;20207;-62
2022/09/02 11:06:27;;;;;;;1.05;0.88;;;;;;;;;;5050433;28;20224;-64
2022/09/02 11:08:56;;;;;;;0.77;0.60;;;;;;;;;;5054175;28;20204;-63
2022/09/02 11:11:24;;;;;;;1.17;0.60;;;;;;;;;;5048792;28;20229;-60
2022/09/02 11:13:58;;;;;;;8.75;0.80;;;;;;;;;;5036501;28;20236;-62
2022/09/02 11:16:27;;;;;;;1.17;0.68;;;;;;;;;;5055063;28;20217;-64
2022/09/02 11:18:59;;;;;;;1.15;0.80;;;;;;;;;;5053657;28;20231;-60
2022/09/02 11:21:31;;;;;;;1.95;0.80;;;;;;;;;;5039649;28;20536;-61
2022/09/02 11:24:01;;;;;;;2.33;1.27;;;;;;;;;;5050067;28;20210;-62
2022/09/02 11:26:31;;;;;;;0.82;0.82;;;;;;;;;;5054285;28;20408;-62
2022/09/02 11:28:59;;;;;;;1.75;0.80;;;;;;;;;;5047076;28;20216;-62
2022/09/02 11:31:29;;;;;;;1.42;0.90;;;;;;;;;;5034505;28;20213;-62
2022/09/02 11:33:58;;;;;;;0.80;0.77;;;;;;;;;;5046956;28;20229;-61
2022/09/02 11:36:25;;;;;;;5.05;0.80;;;;;;;;;;5034172;28;20285;-63
2022/09/02 11:38:54;;;;;;;2.30;0.80;;;;;;;;;;5034068;28;20263;-62
2022/09/02 11:41:25;;;;;;;0.50;0.50;;;;;;;;;;5034083;28;20236;-62
2022/09/02 11:43:54;;;;;;;0.60;0.60;;;;;;;;;;5033926;28;20220;-63
2022/09/02 11:46:36;;;;;;;2.92;0.88;;;;;;;;;;5034089;28;20217;-61
2022/09/02 11:49:12;;;;;;;1.80;0.80;;;;;;;;;;5044461;28;20562;-61
2022/09/02 11:51:47;;;;;;;1.10;0.70;;;;;;;;;;5050009;28;20254;-60
2022/09/02 11:54:16;;;;;;;2.25;0.70;;;;;;;;;;5038510;28;20464;-59
2022/09/02 11:56:44;;;;;;;1.50;0.77;;;;;;;;;;5048132;28;20224;-61
2022/09/02 11:59:19;;;;;;;1.15;0.73;;;;;;;;;;5049254;28;20256;-61
2022/09/02 12:01:48;;;;;;;0.80;0.80;;;;;;;;;;5050743;28;20371;-61
2022/09/02 12:04:19;;;;;;;0.65;0.65;;;;;;;;;;5053856;28;20296;-60
2022/09/02 12:07:00;;;;;;;0.65;0.65;;;;;;;;;;5053350;28;20278;-61
2022/09/02 12:12:40;;;;;;;2.45;0.85;;;;;;;;;;5153144;27;20563;-62
2022/09/02 12:15:13;;;;;;;0.88;0.70;;;;;;;;;;5140214;27;20213;-61
2022/09/02 12:17:44;;;;;;;2.38;0.95;;;;;;;;;;5153882;27;20369;-61
2022/09/02 12:20:12;;;;;;;1.42;0.80;;;;;;;;;;5148579;27;20231;-62
2022/09/02 12:22:39;;;;;;;0.70;0.70;;;;;;;;;;5153508;27;20635;-61
2022/09/02 12:25:32;;;;;;;2.35;1.00;;;;;;;;;;5153226;27;20246;-62
2022/09/02 12:28:13;;;;;;;1.02;0.85;;;;;;;;;;5151604;27;20284;-64
2022/09/02 12:31:00;;;;;;;2.67;0.77;;;;;;;;;;5148733;27;20228;-62
2022/09/02 12:33:30;;;;;;;0.82;0.80;;;;;;;;;;5151698;27;20462;-64
2022/09/02 12:35:58;;;;;;;0.70;0.70;;;;;;;;;;5152216;27;20254;-62
2022/09/02 12:38:31;;;;;;;2.55;0.80;;;;;;;;;;5150944;27;20435;-62
2022/09/02 12:41:02;;;;;;;1.30;0.80;;;;;;;;;;5152185;27;20225;-61
2022/09/02 12:43:31;;;;;;;2.13;0.77;;;;;;;;;;5152723;27;20254;-62
2022/09/02 12:46:06;;;;;;;0.98;0.80;;;;;;;;;;5151669;27;20216;-61
2022/09/02 12:48:39;;;;;;;2.97;0.90;;;;;;;;;;5152211;27;20516;-61
2022/09/02 12:51:05;;;;;;;0.90;0.90;;;;;;;;;;5152137;27;20225;-61
2022/09/02 12:53:36;;;;;;;1.73;0.65;;;;;;;;;;5151939;27;20216;-60
2022/09/02 12:56:05;;;;;;;3.13;0.80;;;;;;;;;;5151897;27;20414;-60
2022/09/02 12:58:33;;;;;;;0.73;0.70;;;;;;;;;;5152504;27;20552;-61
2022/09/02 13:01:05;;;;;;;1.35;1.15;;;;;;;;;;5151683;27;20251;-60
2022/09/02 13:03:49;;;;;;;0.80;0.80;;;;;;;;;;5151955;27;20209;-62
2022/09/02 13:06:24;;;;;;;3.63;0.82;;;;;;;;;;5149093;27;20244;-62
2022/09/02 13:09:01;;;;;;;1.27;0.73;;;;;;;;;;5152279;27;20231;-62
2022/09/02 13:11:51;;;;;;;0.80;0.80;;;;;;;;;;5151986;27;20417;-62
2022/09/02 13:14:44;;;;;;;2.90;0.90;;;;;;;;;;5092605;27;20538;-63
2022/09/02 13:17:20;;;;;;;0.63;0.63;;;;;;;;;;5114292;27;20213;-62
2022/09/02 13:20:01;;;;;;;0.70;0.70;;;;;;;;;;5148635;27;20678;-61
2022/09/02 13:22:48;;;;;;;0.82;0.82;;;;;;;;;;5144880;27;20212;-63
2022/09/02 13:25:34;;;;;;;0.82;0.73;;;;;;;;;;5111067;27;20428;-62
2022/09/02 13:28:16;;;;;;;1.45;0.85;;;;;;;;;;5137418;27;20213;-63
2022/09/02 13:30:55;;;;;;;2.08;0.73;;;;;;;;;;5124385;27;20221;-63
2022/09/02 13:33:21;;;;;;;2.90;0.90;;;;;;;;;;5137825;27;20229;-64
2022/09/02 13:35:53;;;;;;;5.18;0.90;;;;;;;;;;5138298;27;20595;-63
2022/09/02 13:38:23;;;;;;;0.98;0.98;;;;;;;;;;5138208;27;20247;-64
2022/09/02 13:40:49;;;;;;;1.05;0.95;;;;;;;;;;5137892;27;20570;-62
2022/09/02 13:43:17;;;;;;;1.10;1.00;;;;;;;;;;5137779;27;20223;-61
2022/09/02 13:45:43;;;;;;;1.65;1.38;;;;;;;;;;5137441;27;20216;-62
2022/09/02 13:48:10;;;;;;;5.57;1.60;;;;;;;;;;5137761;27;20432;-61
2022/09/02 13:50:42;;;;;;;2.60;0.80;;;;;;;;;;5138316;27;20418;-62
2022/09/02 13:53:11;;;;;;;0.90;0.75;;;;;;;;;;5133440;27;20212;-61
2022/09/02 13:55:39;;;;;;;1.45;1.05;;;;;;;;;;5133775;27;20214;-62
2022/09/02 13:58:07;;;;;;;4.20;0.80;;;;;;;;;;5136729;27;20541;-62
2022/09/02 14:00:34;;;;;;;5.05;1.13;;;;;;;;;;5136681;27;20337;-62
2022/09/02 14:03:02;;;;;;;1.38;0.85;;;;;;;;;;5137067;27;20218;-61
2022/09/02 14:05:30;;;;;;;1.80;0.88;;;;;;;;;;5136376;27;20231;-62
2022/09/02 14:07:58;;;;;;;0.70;0.70;;;;;;;;;;5136028;27;20214;-61
2022/09/02 14:10:27;;;;;;;3.58;1.02;;;;;;;;;;5136074;27;20202;-61
2022/09/02 14:12:54;;;;;;;0.85;0.85;;;;;;;;;;5136971;27;20213;-62
2022/09/02 14:15:23;;;;;;;1.85;0.88;;;;;;;;;;5136346;27;20250;-62
2022/09/02 14:18:05;;;;;;;1.25;1.05;;;;;;;;;;5136817;27;20518;-62
2022/09/02 14:20:31;;;;;;;0.80;0.80;;;;;;;;;;5136179;27;20228;-61
2022/09/02 14:22:58;;;;;;;0.70;0.70;;;;;;;;;;5136516;27;20214;-61
2022/09/02 14:25:27;;;;;;;0.65;0.60;;;;;;;;;;5136878;27;20497;-61
2022/09/02 14:27:54;;;;;;;0.70;0.70;;;;;;;;;;5136837;27;20411;-62
2022/09/02 14:30:31;;;;;;;1.60;0.88;;;;;;;;;;5136286;27;20210;-61
2022/09/02 14:33:17;;;;;;;2.33;0.90;;;;;;;;;;5137244;27;20688;-61
2022/09/02 14:35:54;;;;;;;1.80;1.10;;;;;;;;;;5136296;27;20232;-61
2022/09/02 14:38:22;;;;;;;2.00;0.80;;;;;;;;;;5136328;27;20505;-61
2022/09/02 14:40:58;;;;;;;1.10;0.85;;;;;;;;;;5136292;27;20216;-61
2022/09/02 14:43:24;;;;;;;4.57;1.00;;;;;;;;;;5137045;27;20209;-62
2022/09/02 14:45:51;;;;;;;1.00;0.80;;;;;;;;;;5136039;27;20209;-61
2022/09/02 14:48:21;;;;;;;3.13;0.90;;;;;;;;;;5135556;27;20266;-61
2022/09/02 14:50:48;;;;;;;1.95;0.68;;;;;;;;;;5136095;27;20322;-64
2022/09/02 14:53:20;;;;;;;0.80;0.80;;;;;;;;;;5136100;27;20247;-61
2022/09/02 14:55:48;;;;;;;2.85;0.73;;;;;;;;;;5135888;27;20210;-61
2022/09/02 14:58:16;;;;;;;2.70;1.02;;;;;;;;;;5135570;27;20284;-61
2022/09/02 15:00:44;;;;;;;3.00;0.93;;;;;;;;;;5135620;27;20217;-61